sensor_id;sensor_type;location;lat;lon;timestamp;pressure;altitude;pressure_sealevel;temperature;humidity
71956;BME280;59829;50.562;6.258;2023-04-28T00:28:14;95393.69;;;9.63;76.85
71956;BME280;59829;50.562;6.258;2023-04-28T00:58:14;95367.94;;;9.85;80.97
71956;BME280;59829;50.562;6.258;2023-04-28T01:28:15;95327.59;;;9.98;85.23
71956;BME280;59829;50.562;6.258;2023-04-28T01:58:15;95307.50;;;10.34;88.48
71956;BME280;59829;50.562;6.258;2023-04-28T02:28:16;95270.59;;;10.66;90.92
71956;BME280;59829;50.562;6.258;2023-04-28T02:58:16;95271.38;;;10.76;93.64
71956;BME280;59829;50.562;6.258;2023-04-28T03:28:17;95238.50;;;10.81;96.42
71956;BME280;59829;50.562;6.258;2023-04-28T03:58:17;95199.13;;;10.82;99.09
71956;BME280;59829;50.562;6.258;2023-04-28T04:28:17;95197.22;;;10.84;100.00
71956;BME280;59829;50.562;6.258;2023-04-28T04:58:18;95210.94;;;10.93;100.00
71956;BME280;59829;50.562;6.258;2023-04-28T05:28:19;95189.38;;;10.95;100.00
71956;BME280;59829;50.562;6.258;2023-04-28T05:58:19;95184.41;;;11.21;100.00
71956;BME280;59829;50.562;6.258;2023-04-28T06:28:20;95225.13;;;11.61;100.00
71956;BME280;59829;50.562;6.258;2023-04-28T06:58:20;95230.75;;;12.02;100.00
71956;BME280;59829;50.562;6.258;2023-04-28T07:28:21;95191.72;;;12.52;100.00
71956;BME280;59829;50.562;6.258;2023-04-28T07:58:21;95242.81;;;12.98;100.00
71956;BME280;59829;50.562;6.258;2023-04-28T08:28:22;95251.38;;;13.25;100.00
71956;BME280;59829;50.562;6.258;2023-04-28T08:58:23;95274.88;;;13.56;100.00
71956;BME280;59829;50.562;6.258;2023-04-28T09:28:24;95265.59;;;14.22;100.00
71956;BME280;59829;50.562;6.258;2023-04-28T09:58:26;95243.13;;;14.89;100.00
71956;BME280;59829;50.562;6.258;2023-04-28T10:28:26;95234.94;;;15.65;100.00
71956;BME280;59829;50.562;6.258;2023-04-28T11:28:27;95216.94;;;16.19;100.00
71956;BME280;59829;50.562;6.258;2023-04-28T11:58:27;95224.41;;;16.59;100.00
71956;BME280;59829;50.562;6.258;2023-04-28T12:28:38;95198.34;;;17.22;100.00
71956;BME280;59829;50.562;6.258;2023-04-28T12:58:39;95214.38;;;17.02;100.00
71956;BME280;59829;50.562;6.258;2023-04-28T13:28:40;95226.53;;;17.46;100.00
71956;BME280;59829;50.562;6.258;2023-04-28T13:58:41;95221.91;;;17.56;100.00
71956;BME280;59829;50.562;6.258;2023-04-28T14:28:41;95237.81;;;17.83;95.62
71956;BME280;59829;50.562;6.258;2023-04-28T14:58:41;95226.19;;;17.49;90.05
71956;BME280;59829;50.562;6.258;2023-04-28T15:28:42;95271.63;;;17.37;87.25
71956;BME280;59829;50.562;6.258;2023-04-28T15:58:42;95284.88;;;16.81;86.58
71956;BME280;59829;50.562;6.258;2023-04-28T16:28:42;95313.47;;;16.26;86.98
71956;BME280;59829;50.562;6.258;2023-04-28T16:58:43;95342.75;;;15.22;87.43
71956;BME280;59829;50.562;6.258;2023-04-28T17:28:43;95358.84;;;14.84;88.37
71956;BME280;59829;50.562;6.258;2023-04-28T17:58:43;95361.41;;;14.67;89.18
71956;BME280;59829;50.562;6.258;2023-04-28T18:28:47;95388.75;;;14.52;90.20
71956;BME280;59829;50.562;6.258;2023-04-28T18:58:47;95388.66;;;14.36;91.53
71956;BME280;59829;50.562;6.258;2023-04-28T19:28:47;95433.75;;;13.80;92.31
71956;BME280;59829;50.562;6.258;2023-04-28T19:58:48;95475.16;;;13.25;93.11
71956;BME280;59829;50.562;6.258;2023-04-28T20:28:49;95489.44;;;13.10;94.52
71956;BME280;59829;50.562;6.258;2023-04-28T20:58:50;95491.22;;;12.99;95.88
71956;BME280;59829;50.562;6.258;2023-04-28T21:28:50;95498.03;;;12.73;97.74
71956;BME280;59829;50.562;6.258;2023-04-28T21:58:50;95486.50;;;12.50;100.00
71956;BME280;59829;50.562;6.258;2023-04-28T22:28:51;95476.03;;;12.33;100.00
71956;BME280;59829;50.562;6.258;2023-04-28T22:58:51;95499.88;;;12.16;100.00
71956;BME280;59829;50.562;6.258;2023-04-28T23:28:51;95523.94;;;11.47;100.00
71956;BME280;59829;50.562;6.258;2023-04-28T23:58:52;95505.03;;;11.20;100.00
